Home PIREPS Pireps

Flight WIN1022

  • Submitted By: Vincent Fourni
  • Departure Airport: Bruxelles National (EBBR)
  • Arrival Airport: Trondheim Vaernes (ENVA)
  • Aircraft: YOUR CHOICE (YC)
  • Flight Time: 03.04
  • Date Submitted: 05/12/2017
  • Status: Accepted
Flight Details
Gross Revenue:
(25 load / € 0.00 per unit
€ 0.00
Fuel Cost:
(7499 fuel used @ 5.1 / unit)
€ 38,244.90

Additional Log Information:

View Log

Aircraft Used in flight is PMDG 737-800NGX Brussels Airlines Winglets
09:41 Brakes are On
09:43 Brakes are Released
09:45 Brakes are On
09:47 Brakes are Released
09:52 You Took off @ 177 Knots and Flaps at Position 3
Departure Weather
EBBR 050820Z 21009KT 8000 BKN037 05/04 Q1036 NOSIGrn
09:52 Landing Gear Up @ 182 Knots and 500 Feet
09:53 Below FL100 you need to turn on the landing lights
12:13 You exceeded maximum bank angle
12:29 Below 10000 feet you are not allowed to go over 250 knots
12:32 Landing Gear Down @ 178 Knots and 4010 Feet
12:37 You Landed @ 121 Knots and with -100 Vertical Speed
Arrival Weather
ENVA 051120Z 25013KT 9999 FEW010 SCT013 BKN019 02/00 Q1007 TEMPO 2000 SHSNRA VV008 RMK WIND 670FT 27015KTrn
12:37 Paused
12:39 Unpaused
12:39 Brakes are On
12:47 Brussels Bel-Track1.0.1.2

Route Map

Corporate About Us Our Team Vacancies Information Fleet Route Network Rules and Regulations Operations Flight Schedules Event Center Tours Partners IVAO Vatsim Acars dev FSCB

fb Users Online No pilots online!
0 Pilot(s) and 147 Guest(s) Online
CMS by phpVMS - Design by Crazycreatives.com - Copyright © 2020 - Brussels Airlines Virtual